Aérodrome :
LOGIN :

S'inscrire | Disclaimer

   EN    FR    IT 

 










Légende :    VFR   VFR Marginal   IFR   IFR Intensif   IFR Très Intensif
Visi : 
Plafond : 
>= 8 km
>= 3000ft
5 à 8 km
1000 à 3000 ft
1500m à 5 km
500 à 1000 ft
800 à 1500m
200 à 500 ft
< 800m
< 200 ft
Symboles :   Orages  Brouillard  Fortes neiges  Fortes précipitations  Vent > 20 kt
SIGMETs :   Divers  Orages  Givrage  Turbulence  Onde Orograph.  Cendres Volcan.







- Altitude de l'aérodrome : 138 ft
- Code IATA : RLG


ETNL - Rostock Laage

DERNIER METAR :
  • 171020Z 28017KT 9999 VCSH FEW019CB BKN050 13/09 Q1010 BLU

METARs EXPIRÉS :
  • 171000Z 29018KT 8000 VCSH SCT019CB BKN033 12/09 Q1010 BLU
  • 170941Z 27015KT 7000 -SHRA BKN020CB BKN030 13/08 Q1010 WHT
  • 170920Z 27016KT 9999 VCSH SCT018CB BKN030 13/09 Q1010 BLU
  • 170820Z 25012KT 9999 FEW012 SCT080 11/09 Q1011 BLU+

TAF TAF ETNL
Valide du 17 à 11h jusqu'au 17 à 20h UTC


171020Z 1711/1720 30020G30KT 9999 NSW SCT030 BKN070
TEMPO 1711/1719 31030G45KT 3000 SHRA BKN010CB BY ETGL
Pas de NOTAMs connus pour ce terrain.



MET'MAP, la Météo Aéronautique d'un coup d'oeil ! - Copyright ORBIFLY Décembre 2007 - Disclaimer

ORBIFLY MET'MAP TEAM :

Programmation & Développement : Alexandra Zaïnal
Conception & Développement : Baudouin d'Aumeries
Co-Programmation & Développement : Marc-Olivier Méhu
Soutien technique & logistique : Manuel Goepfert

Contact : metmap@orbifly.com




SOURCES & CREDITS :

   NOAA